Time;durP1;ratioP1;P1;durP2;ratioP2;P2;SDS_P1;SDS_P2;PMS_P1;PMS_P2;Temp;Humidity;BMP_temperature;BMP_pressure;BME280_temperature;BME280_humidity;BME280_pressure;Samples;Min_cycle;Max_cycle;Signal;HPM_P1;HPM_P2
2021/06/17 00:01:43;;;;;;;16.25;13.23;;;;;;;19.51;100.00;100915.91;5223472;28;20036;-66
2021/06/17 00:04:13;;;;;;;28.05;15.93;;;;;;;19.41;100.00;100916.41;5226521;28;20040;-67
2021/06/17 00:06:44;;;;;;;23.08;14.55;;;;;;;19.33;100.00;100916.72;5224649;28;20025;-66
2021/06/17 00:09:15;;;;;;;20.02;15.52;;;;;;;19.24;100.00;100918.03;5220360;28;20021;-66
2021/06/17 00:11:45;;;;;;;18.85;12.93;;;;;;;19.16;100.00;100915.59;5238516;28;20109;-67
2021/06/17 00:14:16;;;;;;;22.05;15.38;;;;;;;19.19;100.00;100907.00;5224758;28;20024;-66
2021/06/17 00:16:46;;;;;;;24.35;15.48;;;;;;;19.16;100.00;100904.72;5238280;28;20660;-66
2021/06/17 00:19:17;;;;;;;19.75;15.40;;;;;;;19.12;100.00;100901.59;5238798;28;20027;-66
2021/06/17 00:21:47;;;;;;;20.58;14.70;;;;;;;19.08;100.00;100900.41;5242150;28;20088;-66
2021/06/17 00:24:18;;;;;;;19.95;14.13;;;;;;;19.05;100.00;100894.56;5234881;28;20504;-66
2021/06/17 00:26:50;;;;;;;24.77;15.95;;;;;;;19.07;100.00;100890.56;5234480;28;20028;-66
2021/06/17 00:29:22;;;;;;;22.25;16.55;;;;;;;19.07;100.00;100887.81;5228703;28;20062;-66
2021/06/17 00:31:52;;;;;;;23.20;15.13;;;;;;;19.06;100.00;100886.16;5241622;28;20025;-66
2021/06/17 00:34:23;;;;;;;25.65;14.65;;;;;;;19.05;100.00;100886.41;5229652;28;20035;-66
2021/06/17 00:36:54;;;;;;;20.75;13.90;;;;;;;19.02;100.00;100879.50;5222738;28;20036;-66
2021/06/17 00:39:25;;;;;;;18.48;14.25;;;;;;;19.02;100.00;100884.94;5216960;28;20518;-67
2021/06/17 00:41:55;;;;;;;22.77;15.77;;;;;;;19.00;100.00;100878.06;5221021;28;20053;-66
2021/06/17 00:44:26;;;;;;;18.42;13.30;;;;;;;18.95;100.00;100883.34;5224107;28;20658;-66
2021/06/17 00:46:56;;;;;;;23.45;14.25;;;;;;;18.92;100.00;100883.78;5226180;28;20679;-66
2021/06/17 00:49:27;;;;;;;24.98;14.70;;;;;;;18.91;100.00;100882.13;5227247;28;20147;-66
2021/06/17 00:51:59;;;;;;;21.73;14.13;;;;;;;18.87;100.00;100881.72;5224595;28;20505;-66
2021/06/17 00:54:32;;;;;;;18.27;14.07;;;;;;;18.85;100.00;100886.53;5224221;28;20489;-66
2021/06/17 00:57:05;;;;;;;19.60;14.25;;;;;;;18.83;100.00;100891.38;5233659;28;20209;-66
2021/06/17 00:59:37;;;;;;;18.02;13.65;;;;;;;18.84;100.00;100890.31;5233471;28;20249;-67
2021/06/17 01:02:07;;;;;;;21.92;16.00;;;;;;;18.93;100.00;100886.28;5226691;28;20135;-66
2021/06/17 01:04:38;;;;;;;20.42;15.18;;;;;;;18.95;100.00;100895.03;5233017;28;20158;-66
2021/06/17 01:07:11;;;;;;;21.38;14.00;;;;;;;18.89;100.00;100895.94;5227542;28;20435;-66
2021/06/17 01:10:05;;;;;;;21.38;15.45;;;;;;;18.87;100.00;100887.16;5233458;28;20020;-66
2021/06/17 01:12:51;;;;;;;18.77;14.52;;;;;;;18.82;100.00;100886.97;5233591;28;20033;-67
2021/06/17 01:15:22;;;;;;;;;;;;;;;18.82;100.00;100887.81;5217588;28;20025;-66
2021/06/17 01:18:06;;;;;;;22.85;16.60;;;;;;;18.83;100.00;100885.94;5224789;28;19952;-66
2021/06/17 01:20:58;;;;;;;20.80;14.73;;;;;;;18.83;100.00;100885.94;5231420;28;20032;-66
2021/06/17 01:23:37;;;;;;;21.20;14.20;;;;;;;18.87;100.00;100887.16;5223052;28;20071;-66
2021/06/17 01:26:13;;;;;;;19.63;14.43;;;;;;;18.88;100.00;100884.22;5233772;28;20111;-66
2021/06/17 01:28:49;;;;;;;18.55;15.55;;;;;;;18.92;100.00;100887.31;5232976;28;20021;-66
2021/06/17 01:31:24;;;;;;;20.65;15.07;;;;;;;18.95;100.00;100891.50;5216443;28;20029;-66
2021/06/17 01:33:56;;;;;;;18.58;15.13;;;;;;;18.97;100.00;100889.38;5216560;28;20028;-66
2021/06/17 01:36:41;;;;;;;17.70;14.75;;;;;;;18.96;100.00;100893.16;5225764;28;20544;-66
2021/06/17 01:39:12;;;;;;;20.95;15.18;;;;;;;18.92;100.00;100895.47;5232623;28;20222;-66
2021/06/17 01:41:46;;;;;;;22.35;16.40;;;;;;;18.85;100.00;100892.81;5240802;28;20050;-66
2021/06/17 01:44:21;;;;;;;21.35;15.32;;;;;;;18.80;100.00;100894.53;5241819;28;20025;-67
2021/06/17 01:46:52;;;;;;;23.77;17.98;;;;;;;18.74;100.00;100885.38;5241472;28;20031;-66
2021/06/17 01:49:24;;;;;;;26.20;17.00;;;;;;;18.68;100.00;100885.38;5240902;28;20024;-66
2021/06/17 01:51:56;;;;;;;21.08;15.60;;;;;;;18.62;100.00;100882.50;5230570;28;20024;-66
2021/06/17 01:54:28;;;;;;;20.83;14.77;;;;;;;18.57;100.00;100878.75;5238737;28;20020;-66
2021/06/17 01:57:01;;;;;;;23.92;16.92;;;;;;;18.52;100.00;100867.69;5241182;28;20432;-66
2021/06/17 01:59:33;;;;;;;21.10;16.48;;;;;;;18.48;100.00;100866.50;5240730;28;20038;-66
2021/06/17 02:02:08;;;;;;;22.67;16.50;;;;;;;18.46;100.00;100874.00;5240827;28;20096;-66
2021/06/17 02:04:41;;;;;;;22.83;17.60;;;;;;;18.40;100.00;100875.72;5232402;28;20028;-66
2021/06/17 02:07:13;;;;;;;24.73;17.23;;;;;;;18.36;100.00;100869.88;5236224;28;20039;-66
2021/06/17 02:09:45;;;;;;;21.65;17.27;;;;;;;18.33;100.00;100873.03;5240424;28;20016;-66
2021/06/17 02:12:16;;;;;;;21.25;16.48;;;;;;;18.31;100.00;100863.44;5227899;28;20362;-66
2021/06/17 02:14:50;;;;;;;26.17;16.67;;;;;;;18.28;100.00;100866.59;5229179;28;20050;-66
2021/06/17 02:17:24;;;;;;;21.52;16.17;;;;;;;18.24;100.00;100858.03;5239143;28;20033;-66
2021/06/17 02:19:54;;;;;;;22.77;15.73;;;;;;;18.22;100.00;100854.69;5240420;28;20020;-66
2021/06/17 02:22:26;;;;;;;17.08;12.27;;;;;;;18.22;100.00;100854.69;5240537;28;20028;-66
2021/06/17 02:24:57;;;;;;;16.95;13.00;;;;;;;18.22;100.00;100851.97;5238453;28;20086;-66
2021/06/17 02:27:30;;;;;;;21.98;14.65;;;;;;;18.22;100.00;100845.72;5228148;28;20016;-66
2021/06/17 02:30:08;;;;;;;18.88;14.52;;;;;;;18.23;100.00;100844.69;5232672;28;20033;-66
2021/06/17 02:32:43;;;;;;;19.55;16.00;;;;;;;18.25;100.00;100839.84;5231235;28;20103;-67
2021/06/17 02:35:16;;;;;;;24.63;14.80;;;;;;;18.25;100.00;100837.97;5235493;28;20022;-66
2021/06/17 02:37:52;;;;;;;43.90;17.05;;;;;;;18.25;100.00;100835.25;5219839;28;20025;-66
2021/06/17 02:40:25;;;;;;;20.88;15.68;;;;;;;18.26;100.00;100841.53;5239996;28;20024;-66
2021/06/17 02:42:56;;;;;;;24.45;16.70;;;;;;;18.33;100.00;100836.91;5240035;28;20607;-67
2021/06/17 02:45:29;;;;;;;24.05;16.30;;;;;;;18.32;100.00;100835.22;5240863;28;20059;-66
2021/06/17 02:48:00;;;;;;;24.42;15.18;;;;;;;18.29;100.00;100833.78;5240215;28;20445;-66
2021/06/17 02:50:30;;;;;;;21.42;14.73;;;;;;;18.31;100.00;100834.38;5239350;28;20115;-67
2021/06/17 02:53:01;;;;;;;20.92;15.70;;;;;;;18.32;100.00;100833.34;5220889;28;20021;-66
2021/06/17 02:55:32;;;;;;;20.90;15.88;;;;;;;18.35;100.00;100837.50;5220959;28;20044;-66
2021/06/17 02:58:21;;;;;;;25.80;14.88;;;;;;;18.36;100.00;100845.44;5241348;28;20052;-67
2021/06/17 03:01:07;;;;;;;20.10;14.30;;;;;;;18.35;100.00;100845.66;5240251;28;20020;-66
2021/06/17 03:03:51;;;;;;;23.20;16.17;;;;;;;18.34;100.00;100846.72;5241005;28;20024;-67
2021/06/17 03:06:28;;;;;;;21.27;15.63;;;;;;;18.48;100.00;100829.28;5241652;28;20021;-67
2021/06/17 03:09:03;;;;;;;23.58;15.85;;;;;;;18.52;100.00;100833.22;5240221;28;20020;-66
2021/06/17 03:11:36;;;;;;;19.42;15.00;;;;;;;18.50;100.00;100839.94;5241706;28;20035;-66
2021/06/17 03:14:14;;;;;;;23.83;15.82;;;;;;;18.44;100.00;100836.19;5226682;28;20111;-67
2021/06/17 03:16:49;;;;;;;24.33;15.52;;;;;;;18.36;100.00;100834.56;5238555;28;20104;-67
2021/06/17 03:19:21;;;;;;;27.75;15.27;;;;;;;18.29;100.00;100841.94;5227946;28;20070;-66
2021/06/17 03:21:55;;;;;;;28.10;15.63;;;;;;;18.25;100.00;100829.00;5239585;28;20054;-66
2021/06/17 03:24:28;;;;;;;23.17;13.60;;;;;;;18.21;100.00;100839.44;5239762;28;20025;-66
2021/06/17 03:27:01;;;;;;;22.25;15.10;;;;;;;18.18;100.00;100834.47;5240237;28;20642;-67
2021/06/17 03:29:36;;;;;;;20.73;15.23;;;;;;;18.23;100.00;100836.53;5239033;28;20028;-67
2021/06/17 03:32:09;;;;;;;19.23;14.43;;;;;;;18.25;100.00;100839.84;5231994;28;20036;-67
2021/06/17 03:34:42;;;;;;;22.40;15.18;;;;;;;18.27;100.00;100837.75;5234110;28;20044;-67
2021/06/17 03:37:16;;;;;;;23.20;14.75;;;;;;;18.28;100.00;100840.25;5228164;28;20017;-67
2021/06/17 03:39:48;;;;;;;21.92;15.32;;;;;;;18.35;100.00;100830.19;5222257;28;20017;-66
2021/06/17 03:42:20;;;;;;;24.45;15.38;;;;;;;18.41;100.00;100828.47;5239716;28;20025;-67
2021/06/17 03:44:52;;;;;;;19.58;12.90;;;;;;;18.45;100.00;100834.31;5225616;28;20032;-67
2021/06/17 03:47:24;;;;;;;20.45;14.43;;;;;;;18.52;100.00;100821.50;5239643;28;20020;-67
2021/06/17 03:49:55;;;;;;;20.27;15.68;;;;;;;18.57;100.00;100822.50;5239115;28;20024;-67
2021/06/17 03:52:26;;;;;;;21.77;14.50;;;;;;;18.62;100.00;100825.44;5227218;28;20096;-67
2021/06/17 03:54:57;;;;;;;18.17;14.40;;;;;;;18.69;100.00;100816.44;5241391;28;20025;-67
2021/06/17 03:57:29;;;;;;;20.60;14.85;;;;;;;18.70;100.00;100816.19;5243682;28;20484;-67
2021/06/17 04:00:00;;;;;;;24.67;15.00;;;;;;;18.81;100.00;100811.94;5242894;28;20052;-67
2021/06/17 04:02:31;;;;;;;20.48;14.43;;;;;;;18.77;100.00;100806.09;5238779;28;20059;-67
2021/06/17 04:05:02;;;;;;;27.20;14.98;;;;;;;18.78;100.00;100818.66;5234992;28;20039;-67
2021/06/17 04:07:35;;;;;;;19.92;14.45;;;;;;;18.76;100.00;100809.88;5229593;28;20017;-67
2021/06/17 04:10:08;;;;;;;17.60;13.07;;;;;;;18.75;100.00;100816.38;5242367;28;20044;-67
2021/06/17 04:12:40;;;;;;;16.40;13.13;;;;;;;18.79;100.00;100814.06;5243681;28;20755;-67
2021/06/17 04:15:11;;;;;;;19.38;12.82;;;;;;;18.86;100.00;100812.94;5243223;28;20097;-67
2021/06/17 04:17:43;;;;;;;18.92;12.20;;;;;;;18.92;100.00;100810.38;5242835;28;20032;-67
2021/06/17 04:20:26;;;;;;;21.63;13.05;;;;;;;19.01;100.00;100814.50;5242350;28;20028;-67
2021/06/17 04:22:58;;;;;;;18.73;12.50;;;;;;;19.08;100.00;100818.00;5243190;28;20021;-66
2021/06/17 04:25:29;;;;;;;15.45;11.93;;;;;;;19.15;100.00;100816.88;5235576;28;20092;-67
2021/06/17 04:28:02;;;;;;;18.60;11.43;;;;;;;19.26;100.00;100819.91;5237496;28;20439;-67
2021/06/17 04:30:34;;;;;;;13.65;10.70;;;;;;;19.38;100.00;100813.50;5241829;28;20028;-67
2021/06/17 04:33:08;;;;;;;18.88;10.88;;;;;;;19.49;100.00;100824.72;5239665;28;20685;-67
2021/06/17 04:35:42;;;;;;;13.55;9.88;;;;;;;19.60;100.00;100821.25;5233927;28;20388;-67
2021/06/17 04:38:14;;;;;;;13.80;10.52;;;;;;;19.75;100.00;100829.88;5223192;28;20585;-67
2021/06/17 04:40:49;;;;;;;18.80;10.93;;;;;;;19.81;100.00;100823.53;5233364;28;20020;-67
2021/06/17 04:43:23;;;;;;;20.65;10.80;;;;;;;19.92;100.00;100827.38;5221907;28;20031;-67
2021/06/17 04:45:54;;;;;;;18.00;10.43;;;;;;;20.07;100.00;100819.63;5237018;28;20534;-67
2021/06/17 04:48:27;;;;;;;21.10;9.88;;;;;;;20.24;100.00;100822.56;5242662;28;20016;-68
2021/06/17 04:50:58;;;;;;;23.40;10.02;;;;;;;20.39;100.00;100831.16;5239278;28;20100;-67
2021/06/17 04:53:30;;;;;;;16.65;10.20;;;;;;;20.59;100.00;100830.91;5232303;28;20031;-67
2021/06/17 04:56:00;;;;;;;13.57;8.25;;;;;;;20.80;100.00;100831.41;5228892;28;20031;-68
2021/06/17 04:58:33;;;;;;;12.20;8.82;;;;;;;21.09;100.00;100841.41;5242374;28;20063;-67
2021/06/17 05:01:05;;;;;;;16.02;9.25;;;;;;;21.28;100.00;100839.41;5241736;28;20127;-68
2021/06/17 05:03:37;;;;;;;16.15;8.82;;;;;;;21.57;100.00;100834.91;5241993;28;20105;-67
2021/06/17 05:06:09;;;;;;;24.30;9.48;;;;;;;21.87;100.00;100828.44;5241030;28;20031;-67
2021/06/17 05:11:28;;;;;;;16.60;7.32;;;;;;;22.30;100.00;100836.19;5241754;28;20040;-67
2021/06/17 05:13:59;;;;;;;12.50;7.07;;;;;;;22.55;100.00;100843.19;5228318;28;20016;-67
2021/06/17 05:16:30;;;;;;;11.73;7.18;;;;;;;22.66;100.00;100845.88;5242021;28;20112;-67
2021/06/17 05:19:01;;;;;;;7.75;5.50;;;;;;;22.67;100.00;100846.69;5241589;28;20041;-67
2021/06/17 05:21:31;;;;;;;11.90;6.07;;;;;;;22.67;100.00;100850.25;5241321;28;20032;-67
2021/06/17 05:24:02;;;;;;;8.43;5.68;;;;;;;22.64;100.00;100861.69;5242044;28;20054;-67
2021/06/17 05:26:34;;;;;;;12.57;6.18;;;;;;;22.67;100.00;100863.09;5241366;28;20107;-67
2021/06/17 05:29:05;;;;;;;8.82;6.22;;;;;;;22.62;100.00;100866.56;5240882;28;20017;-67
2021/06/17 05:31:35;;;;;;;12.20;6.50;;;;;;;22.57;100.00;100879.31;5237988;28;20052;-67
2021/06/17 05:34:06;;;;;;;8.63;5.93;;;;;;;22.50;100.00;100884.94;5232279;28;20024;-67
2021/06/17 05:36:37;;;;;;;9.27;4.93;;;;;;;22.38;100.00;100892.34;5234541;28;20489;-67
2021/06/17 05:39:07;;;;;;;6.10;5.05;;;;;;;22.36;100.00;100919.09;5219888;28;20028;-68
2021/06/17 05:41:38;;;;;;;9.98;4.78;;;;;;;22.47;100.00;100935.44;5227108;28;20033;-67
2021/06/17 05:44:08;;;;;;;9.82;4.88;;;;;;;22.42;100.00;100940.81;5241899;28;20024;-67
2021/06/17 05:46:42;;;;;;;9.25;4.90;;;;;;;22.39;100.00;100940.47;5234187;28;20029;-68
2021/06/17 05:49:13;;;;;;;12.73;4.70;;;;;;;22.46;100.00;100931.06;5234891;28;20048;-68
2021/06/17 05:51:44;;;;;;;17.73;4.97;;;;;;;22.54;100.00;100935.31;5232062;28;20023;-68
2021/06/17 05:54:14;;;;;;;7.95;4.50;;;;;;;22.62;100.00;100954.06;5220319;28;20648;-68
2021/06/17 05:56:46;;;;;;;11.55;4.72;;;;;;;22.97;100.00;100955.84;5230563;28;20028;-68
2021/06/17 05:59:18;;;;;;;9.23;3.92;;;;;;;23.59;100.00;100961.28;5236015;28;20264;-68
2021/06/17 06:01:48;;;;;;;7.25;4.25;;;;;;;23.73;100.00;100972.75;5231982;28;20036;-67
2021/06/17 06:04:18;;;;;;;9.48;4.35;;;;;;;23.72;100.00;100977.41;5240513;28;20064;-66
2021/06/17 06:06:49;;;;;;;8.25;4.35;;;;;;;23.59;100.00;100968.66;5240564;28;20021;-68
2021/06/17 06:09:19;;;;;;;7.95;3.90;;;;;;;23.70;100.00;100978.75;5240299;28;20370;-68
2021/06/17 06:11:50;;;;;;;8.57;3.55;;;;;;;24.33;100.00;100985.66;5227255;28;20029;-67
2021/06/17 06:14:21;;;;;;;10.70;3.90;;;;;;;24.54;100.00;100993.09;5240841;28;20024;-68
2021/06/17 06:16:51;;;;;;;9.32;4.07;;;;;;;24.54;100.00;100981.28;5224707;28;20033;-68
2021/06/17 06:19:22;;;;;;;13.25;3.92;;;;;;;24.37;100.00;100986.84;5228943;28;20107;-67
2021/06/17 06:21:52;;;;;;;9.77;3.90;;;;;;;25.31;100.00;100991.22;5237573;28;20031;-68
2021/06/17 06:24:23;;;;;;;8.55;3.92;;;;;;;26.87;100.00;100988.06;5230366;28;20107;-68
2021/06/17 06:26:58;;;;;;;8.30;3.70;;;;;;;27.76;100.00;100995.91;5240268;28;20016;-68
2021/06/17 06:29:30;;;;;;;7.05;3.10;;;;;;;28.68;86.21;100981.03;5227986;28;20056;-68
2021/06/17 06:32:00;;;;;;;9.25;3.78;;;;;;;29.31;80.47;100970.94;5225564;28;20024;-67
2021/06/17 06:34:31;;;;;;;9.85;3.42;;;;;;;29.65;78.89;100972.91;5240437;28;20060;-67
2021/06/17 06:37:02;;;;;;;10.43;3.13;;;;;;;29.54;74.81;100994.28;5229832;28;20031;-67
2021/06/17 06:39:33;;;;;;;15.38;3.05;;;;;;;29.29;76.34;100986.19;5221174;28;20108;-68
2021/06/17 06:42:04;;;;;;;6.70;4.00;;;;;;;29.29;84.39;100980.66;5240171;28;20149;-70
2021/06/17 06:44:34;;;;;;;13.15;3.40;;;;;;;29.81;81.88;100954.22;5240355;28;20024;-69
2021/06/17 06:47:05;;;;;;;14.93;3.10;;;;;;;29.53;76.88;100959.44;5240131;28;20020;-69
2021/06/17 06:49:36;;;;;;;7.40;2.65;;;;;;;29.58;82.89;100945.63;5239585;28;20633;-69
2021/06/17 06:52:07;;;;;;;8.07;2.88;;;;;;;28.89;81.41;100949.41;5228069;28;20466;-69
2021/06/17 06:54:37;;;;;;;11.02;3.00;;;;;;;28.97;83.41;100937.81;5239577;28;20031;-68
2021/06/17 06:57:08;;;;;;;3.70;2.90;;;;;;;27.83;96.00;100940.47;5226060;28;20494;-67
2021/06/17 06:59:38;;;;;;;7.40;2.08;;;;;;;26.91;100.00;100943.22;5226641;28;20028;-68
2021/06/17 07:02:08;;;;;;;13.25;2.80;;;;;;;26.73;100.00;100928.03;5240060;28;20017;-68
2021/06/17 07:04:39;;;;;;;8.98;2.80;;;;;;;26.47;100.00;100907.06;5239446;28;20036;-68
2021/06/17 07:07:09;;;;;;;15.63;3.00;;;;;;;26.35;100.00;100924.56;5239841;28;20040;-68
2021/06/17 07:09:40;;;;;;;8.75;2.60;;;;;;;26.75;100.00;100909.31;5239825;28;20377;-67
2021/06/17 07:12:11;;;;;;;7.55;2.90;;;;;;;26.92;100.00;100916.50;5239677;28;20025;-67
2021/06/17 07:14:41;;;;;;;5.85;2.67;;;;;;;27.22;100.00;100907.47;5240098;28;20050;-69
2021/06/17 07:17:12;;;;;;;7.43;2.40;;;;;;;27.59;100.00;100905.22;5231083;28;20478;-67
2021/06/17 07:19:43;;;;;;;6.18;2.90;;;;;;;27.87;100.00;100912.06;5198982;28;20033;-68
2021/06/17 07:22:13;;;;;;;5.13;2.72;;;;;;;28.41;91.72;100901.41;5213143;28;20503;-68
2021/06/17 07:24:44;;;;;;;8.38;2.80;;;;;;;28.25;96.35;100906.97;5224770;28;20132;-68
2021/06/17 07:27:15;;;;;;;10.45;3.28;;;;;;;28.33;84.19;100903.66;5237093;28;20151;-67
2021/06/17 07:29:45;;;;;;;9.82;2.60;;;;;;;28.29;86.06;100885.16;5238977;28;20037;-68
2021/06/17 07:32:17;;;;;;;4.97;2.67;;;;;;;28.08;95.28;100890.78;5242145;28;20074;-68
2021/06/17 07:34:48;;;;;;;9.45;2.72;;;;;;;28.01;95.70;100879.19;5242134;28;20024;-68
2021/06/17 07:37:19;;;;;;;11.30;2.55;;;;;;;27.95;100.00;100885.03;5228737;28;20433;-66
2021/06/17 07:39:49;;;;;;;8.90;3.00;;;;;;;27.87;100.00;100875.41;5225211;28;20065;-67
2021/06/17 07:42:20;;;;;;;5.93;2.38;;;;;;;27.84;100.00;100887.00;5242064;28;20400;-68
2021/06/17 07:44:51;;;;;;;10.98;3.13;;;;;;;27.90;100.00;100874.00;5242360;28;20082;-68
2021/06/17 07:47:21;;;;;;;18.38;3.42;;;;;;;28.32;100.00;100863.34;5241203;28;20111;-68
2021/06/17 07:49:52;;;;;;;14.23;3.67;;;;;;;28.90;90.84;100851.66;5241149;28;20104;-68
2021/06/17 07:52:23;;;;;;;9.25;2.80;;;;;;;28.70;84.99;100852.66;5228608;28;20017;-67
2021/06/17 07:54:53;;;;;;;8.20;2.92;;;;;;;28.55;99.53;100864.63;5242412;28;20025;-68
2021/06/17 07:57:24;;;;;;;12.43;2.80;;;;;;;28.11;100.00;100875.56;5241057;28;20568;-68
2021/06/17 07:59:54;;;;;;;9.07;3.15;;;;;;;28.33;96.55;100869.69;5241237;28;20028;-67
2021/06/17 08:02:26;;;;;;;5.80;2.60;;;;;;;28.28;96.75;100872.47;5224714;28;20107;-67
2021/06/17 08:04:57;;;;;;;7.72;2.78;;;;;;;28.18;100.00;100861.50;5220809;28;20059;-68
2021/06/17 08:07:27;;;;;;;7.75;2.90;;;;;;;27.93;100.00;100855.00;5224572;28;20016;-67
2021/06/17 08:09:58;;;;;;;10.27;2.92;;;;;;;27.75;100.00;100858.34;5241353;28;20047;-68
2021/06/17 08:12:30;;;;;;;6.18;2.70;;;;;;;27.45;100.00;100868.31;5222071;28;20025;-68
2021/06/17 08:15:01;;;;;;;8.98;2.75;;;;;;;27.26;100.00;100869.97;5234395;28;20032;-68
2021/06/17 08:17:31;;;;;;;3.78;2.70;;;;;;;26.80;100.00;100876.28;5232517;28;20504;-66
2021/06/17 08:20:05;;;;;;;10.65;2.80;;;;;;;26.58;100.00;100878.47;5234705;28;20568;-68
2021/06/17 08:22:37;;;;;;;7.75;3.05;;;;;;;26.43;100.00;100871.00;5241503;28;20519;-67
2021/06/17 08:25:09;;;;;;;8.55;2.70;;;;;;;26.47;100.00;100879.53;5241372;28;20025;-67
2021/06/17 08:27:40;;;;;;;11.65;3.35;;;;;;;26.42;100.00;100879.50;5240347;28;20117;-67
2021/06/17 08:30:14;;;;;;;10.73;2.65;;;;;;;26.41;100.00;100877.81;5226741;28;20897;-68
2021/06/17 08:32:46;;;;;;;12.55;3.00;;;;;;;26.39;100.00;100891.03;5241142;28;20032;-67
2021/06/17 08:35:16;;;;;;;9.10;2.55;;;;;;;26.55;100.00;100904.56;5234626;28;20017;-66
2021/06/17 08:37:47;;;;;;;6.80;2.90;;;;;;;26.60;100.00;100912.03;5218715;28;20032;-67
2021/06/17 08:40:17;;;;;;;7.28;3.00;;;;;;;26.40;100.00;100915.50;5227732;28;20103;-67
2021/06/17 08:42:49;;;;;;;21.17;4.10;;;;;;;26.33;100.00;100912.19;5227457;28;20029;-67
2021/06/17 08:45:19;;;;;;;8.40;3.53;;;;;;;26.37;100.00;100915.25;5240904;28;20035;-67
2021/06/17 08:47:50;;;;;;;8.68;3.25;;;;;;;26.52;100.00;100907.91;5240194;28;20022;-67
2021/06/17 08:50:21;;;;;;;9.77;2.95;;;;;;;26.58;100.00;100909.56;5229012;28;20024;-67
2021/06/17 08:52:52;;;;;;;11.52;3.00;;;;;;;26.88;100.00;100918.97;5225165;28;20028;-66
2021/06/17 08:55:28;;;;;;;12.55;3.30;;;;;;;27.18;100.00;100923.72;5240788;28;20574;-66
2021/06/17 08:57:58;;;;;;;10.20;2.70;;;;;;;27.44;100.00;100926.44;5212196;28;20119;-66
2021/06/17 09:00:33;;;;;;;9.38;3.17;;;;;;;27.69;100.00;100920.91;5226543;28;20397;-66
2021/06/17 09:03:18;;;;;;;8.60;2.95;;;;;;;27.62;100.00;100925.88;5240224;28;20120;-67
2021/06/17 09:05:54;;;;;;;10.63;3.60;;;;;;;27.82;100.00;100931.38;5235579;28;20027;-67
2021/06/17 09:08:27;;;;;;;7.03;3.60;;;;;;;27.75;100.00;100930.00;5232180;28;20074;-68
2021/06/17 09:10:58;;;;;;;20.75;3.65;;;;;;;27.88;100.00;100929.44;5221850;28;20493;-68
2021/06/17 09:13:31;;;;;;;6.70;3.05;;;;;;;28.05;100.00;100932.69;5240022;28;20087;-67
2021/06/17 09:16:02;;;;;;;8.93;3.42;;;;;;;28.13;100.00;100929.34;5240263;28;20452;-68
2021/06/17 09:18:34;;;;;;;10.57;3.10;;;;;;;28.36;100.00;100924.31;5239547;28;20589;-67
2021/06/17 09:21:10;;;;;;;9.50;3.20;;;;;;;28.59;100.00;100923.66;5239515;28;20103;-68
2021/06/17 09:23:42;;;;;;;16.80;3.83;;;;;;;28.92;100.00;100937.81;5239989;28;20382;-68
2021/06/17 09:26:18;;;;;;;16.10;3.53;;;;;;;29.05;100.00;100937.19;5227036;28;20028;-68
2021/06/17 09:29:09;;;;;;;7.30;2.70;;;;;;;29.24;100.00;100936.50;5225636;28;20025;-67
2021/06/17 09:31:42;;;;;;;11.07;3.30;;;;;;;29.05;91.08;100947.41;5239778;28;20095;-68
2021/06/17 09:34:14;;;;;;;9.65;2.80;;;;;;;29.37;97.49;100950.47;5240779;28;20020;-67
2021/06/17 09:36:45;;;;;;;7.93;3.08;;;;;;;29.24;89.18;100951.13;5232130;28;20404;-67
2021/06/17 09:39:19;;;;;;;8.82;2.85;;;;;;;29.42;85.04;100955.13;5218976;28;20028;-67
2021/06/17 09:41:51;;;;;;;9.85;2.60;;;;;;;29.90;84.38;100946.94;5222980;28;20029;-65
2021/06/17 09:44:31;;;;;;;9.85;3.13;;;;;;;30.16;79.34;100953.84;5239724;28;20077;-67
2021/06/17 09:47:05;;;;;;;6.85;2.70;;;;;;;30.07;87.25;100954.75;5239288;28;20520;-67
2021/06/17 09:49:37;;;;;;;9.65;3.60;;;;;;;30.25;79.50;100965.09;5238851;28;20107;-66
2021/06/17 09:52:09;;;;;;;9.50;2.80;;;;;;;30.21;73.23;100952.16;5227072;28;20108;-68
2021/06/17 09:54:42;;;;;;;7.18;3.00;;;;;;;30.34;87.98;100957.81;5238189;28;20078;-67
2021/06/17 09:57:16;;;;;;;6.57;3.03;;;;;;;30.45;84.14;100961.25;5238660;28;20029;-67
2021/06/17 09:59:53;;;;;;;12.30;4.15;;;;;;;29.97;73.40;100975.06;5230098;28;20591;-67
2021/06/17 10:02:33;;;;;;;6.97;3.17;;;;;;;29.88;73.96;100971.31;5218740;28;20112;-67
2021/06/17 10:05:31;;;;;;;9.73;2.75;;;;;;;30.01;67.67;100975.31;5230434;28;20021;-67
2021/06/17 10:08:02;;;;;;;8.25;2.85;;;;;;;29.82;68.93;100972.47;5234203;28;20544;-67
2021/06/17 10:10:35;;;;;;;10.35;3.10;;;;;;;29.31;74.01;100986.72;5234946;28;20086;-67
2021/06/17 10:13:08;;;;;;;5.07;2.70;;;;;;;29.36;74.22;100981.97;5229928;28;20024;-67
2021/06/17 10:15:39;;;;;;;7.13;2.65;;;;;;;29.06;69.75;100993.25;5238392;28;20044;-67
2021/06/17 10:18:09;;;;;;;5.75;2.67;;;;;;;29.39;75.28;100986.09;5238247;28;20178;-66
2021/06/17 10:20:40;;;;;;;6.25;2.67;;;;;;;29.21;73.49;100979.31;5238246;28;20021;-67
2021/06/17 10:23:14;;;;;;;8.00;3.17;;;;;;;29.43;76.09;100981.66;5237469;28;20131;-67
2021/06/17 10:25:46;;;;;;;5.57;2.45;;;;;;;29.57;71.35;100984.59;5227002;28;20029;-67
2021/06/17 10:28:43;;;;;;;7.47;2.47;;;;;;;29.91;81.42;100976.25;5221338;28;20021;-67
2021/06/17 10:31:45;;;;;;;7.80;3.08;;;;;;;30.41;73.40;100979.56;5217861;28;20680;-67
2021/06/17 10:34:25;;;;;;;10.13;2.63;;;;;;;30.40;71.68;100989.00;5238281;28;20020;-68
2021/06/17 10:37:16;;;;;;;7.88;2.72;;;;;;;30.61;70.65;100981.25;5204074;28;20036;-67
2021/06/17 10:39:47;;;;;;;7.82;2.97;;;;;;;30.83;62.15;100975.19;5234363;28;20091;-66
2021/06/17 10:42:39;;;;;;;5.20;2.50;;;;;;;30.77;66.62;100987.44;5238020;28;20046;-67
2021/06/17 10:45:32;;;;;;;8.25;2.50;;;;;;;30.97;63.46;100987.13;5213270;28;20024;-68
2021/06/17 10:48:06;;;;;;;4.75;1.67;;;;;;;31.26;60.53;100994.47;5238082;28;20051;-67
2021/06/17 10:50:42;;;;;;;6.85;2.22;;;;;;;31.24;55.45;100996.72;5236902;28;20033;-67
2021/06/17 10:53:17;;;;;;;5.53;1.60;;;;;;;31.32;57.38;101002.41;5213389;28;20032;-68
2021/06/17 10:56:00;;;;;;;6.10;2.17;;;;;;;31.42;54.57;100999.47;5236551;28;20028;-67
2021/06/17 10:58:45;;;;;;;4.78;1.70;;;;;;;31.18;56.22;101009.84;5238115;28;20052;-68
2021/06/17 11:01:28;;;;;;;6.60;2.25;;;;;;;30.99;57.21;100997.94;5237151;28;20665;-68
2021/06/17 11:03:59;;;;;;;10.60;2.20;;;;;;;30.93;59.91;101002.72;5237360;28;20111;-67
2021/06/17 11:06:52;;;;;;;6.35;2.08;;;;;;;31.16;56.15;101012.91;5237273;28;20506;-68
2021/06/17 11:09:57;;;;;;;4.45;1.65;;;;;;;31.16;56.62;101012.91;5237121;28;20024;-67
2021/06/17 11:12:40;;;;;;;4.82;1.95;;;;;;;31.33;54.48;101025.44;5223824;28;20021;-67
2021/06/17 11:15:31;;;;;;;8.32;1.63;;;;;;;31.35;54.85;101015.69;5237249;28;20028;-67
2021/06/17 11:18:02;;;;;;;5.80;1.58;;;;;;;31.53;57.21;101019.56;5237392;28;20060;-68
2021/06/17 11:20:37;;;;;;;5.40;2.10;;;;;;;31.40;55.89;101023.91;5231326;28;20024;-66
2021/06/17 11:23:08;;;;;;;;;;;;;;;31.43;57.07;101031.66;5230846;28;20052;-68
2021/06/17 11:25:43;;;;;;;9.25;2.03;;;;;;;31.60;55.38;101025.53;5237463;28;19948;-68
2021/06/17 11:28:15;;;;;;;5.88;1.70;;;;;;;31.71;56.52;101035.31;5225336;28;20025;-68
2021/06/17 11:30:46;;;;;;;7.72;1.77;;;;;;;31.66;55.88;101023.50;5232412;28;20056;-68
2021/06/17 11:33:19;;;;;;;7.97;1.95;;;;;;;31.74;55.85;101030.31;5231646;28;20032;-67
2021/06/17 11:36:00;;;;;;;8.38;1.85;;;;;;;31.70;56.18;101033.69;5248254;28;20029;-67
2021/06/17 11:38:34;;;;;;;6.55;2.00;;;;;;;31.67;58.16;101039.00;5246487;28;20024;-68
2021/06/17 11:41:13;;;;;;;12.60;2.80;;;;;;;31.66;55.23;101040.94;5260374;28;20025;-74
2021/06/17 11:43:51;;;;;;;5.97;1.70;;;;;;;31.68;55.10;101046.22;5248229;28;20024;-67